sensor_id;sensor_type;location;lat;lon;timestamp;P1;durP1;ratioP1;P2;durP2;ratioP2
25449;SDS011;13371;52.080;5.624;2023-05-07T00:02:02;6.47;;;3.88;;
25449;SDS011;13371;52.080;5.624;2023-05-07T00:04:28;6.25;;;3.80;;
25449;SDS011;13371;52.080;5.624;2023-05-07T00:07:00;10.05;;;4.55;;
25449;SDS011;13371;52.080;5.624;2023-05-07T00:09:26;5.78;;;3.95;;
25449;SDS011;13371;52.080;5.624;2023-05-07T00:11:52;7.65;;;3.53;;
25449;SDS011;13371;52.080;5.624;2023-05-07T00:14:17;4.72;;;3.22;;
25449;SDS011;13371;52.080;5.624;2023-05-07T00:16:43;7.68;;;3.53;;
25449;SDS011;13371;52.080;5.624;2023-05-07T00:19:09;6.22;;;3.65;;
25449;SDS011;13371;52.080;5.624;2023-05-07T00:21:34;5.85;;;3.83;;
25449;SDS011;13371;52.080;5.624;2023-05-07T00:24:00;7.65;;;3.80;;
25449;SDS011;13371;52.080;5.624;2023-05-07T00:26:25;6.88;;;4.05;;
25449;SDS011;13371;52.080;5.624;2023-05-07T00:28:51;5.90;;;4.07;;
25449;SDS011;13371;52.080;5.624;2023-05-07T00:31:17;6.65;;;3.67;;
25449;SDS011;13371;52.080;5.624;2023-05-07T00:33:42;7.35;;;4.20;;
25449;SDS011;13371;52.080;5.624;2023-05-07T00:36:08;7.95;;;4.38;;
25449;SDS011;13371;52.080;5.624;2023-05-07T00:38:33;7.70;;;4.10;;
25449;SDS011;13371;52.080;5.624;2023-05-07T00:40:59;6.97;;;3.90;;
25449;SDS011;13371;52.080;5.624;2023-05-07T00:43:24;5.68;;;3.65;;
25449;SDS011;13371;52.080;5.624;2023-05-07T00:45:50;6.78;;;3.92;;
25449;SDS011;13371;52.080;5.624;2023-05-07T00:48:16;5.93;;;3.70;;
25449;SDS011;13371;52.080;5.624;2023-05-07T00:50:42;5.95;;;3.88;;
25449;SDS011;13371;52.080;5.624;2023-05-07T00:53:08;7.30;;;4.03;;
25449;SDS011;13371;52.080;5.624;2023-05-07T00:55:34;7.78;;;4.18;;
25449;SDS011;13371;52.080;5.624;2023-05-07T00:58:00;5.50;;;4.03;;
25449;SDS011;13371;52.080;5.624;2023-05-07T01:00:26;5.93;;;3.53;;
25449;SDS011;13371;52.080;5.624;2023-05-07T01:02:52;9.00;;;4.38;;
25449;SDS011;13371;52.080;5.624;2023-05-07T01:05:18;6.22;;;3.90;;
25449;SDS011;13371;52.080;5.624;2023-05-07T01:07:45;7.18;;;4.13;;
25449;SDS011;13371;52.080;5.624;2023-05-07T01:10:11;7.38;;;4.13;;
25449;SDS011;13371;52.080;5.624;2023-05-07T01:12:37;8.60;;;4.65;;
25449;SDS011;13371;52.080;5.624;2023-05-07T01:15:05;6.70;;;4.35;;
25449;SDS011;13371;52.080;5.624;2023-05-07T01:17:36;5.75;;;3.70;;
25449;SDS011;13371;52.080;5.624;2023-05-07T01:20:03;7.63;;;4.45;;
25449;SDS011;13371;52.080;5.624;2023-05-07T01:22:39;10.38;;;4.78;;
25449;SDS011;13371;52.080;5.624;2023-05-07T01:25:05;5.78;;;4.32;;
25449;SDS011;13371;52.080;5.624;2023-05-07T01:27:33;7.43;;;4.63;;
25449;SDS011;13371;52.080;5.624;2023-05-07T01:29:59;8.38;;;4.90;;
25449;SDS011;13371;52.080;5.624;2023-05-07T01:33:25;8.55;;;4.72;;
25449;SDS011;13371;52.080;5.624;2023-05-07T01:35:26;8.27;;;4.82;;
25449;SDS011;13371;52.080;5.624;2023-05-07T01:37:55;7.13;;;4.70;;
25449;SDS011;13371;52.080;5.624;2023-05-07T01:40:21;7.53;;;4.47;;
25449;SDS011;13371;52.080;5.624;2023-05-07T01:42:48;11.82;;;4.78;;
25449;SDS011;13371;52.080;5.624;2023-05-07T01:45:14;6.95;;;4.55;;
25449;SDS011;13371;52.080;5.624;2023-05-07T01:47:39;7.68;;;5.05;;
25449;SDS011;13371;52.080;5.624;2023-05-07T01:50:06;10.52;;;5.43;;
25449;SDS011;13371;52.080;5.624;2023-05-07T01:52:33;8.70;;;5.85;;
25449;SDS011;13371;52.080;5.624;2023-05-07T01:54:59;8.85;;;5.38;;
25449;SDS011;13371;52.080;5.624;2023-05-07T01:57:24;10.07;;;6.00;;
25449;SDS011;13371;52.080;5.624;2023-05-07T01:59:50;9.15;;;5.82;;
25449;SDS011;13371;52.080;5.624;2023-05-07T02:02:16;8.52;;;6.05;;
25449;SDS011;13371;52.080;5.624;2023-05-07T02:04:41;9.65;;;5.63;;
25449;SDS011;13371;52.080;5.624;2023-05-07T02:07:07;7.55;;;5.32;;
25449;SDS011;13371;52.080;5.624;2023-05-07T02:09:32;10.15;;;6.25;;
25449;SDS011;13371;52.080;5.624;2023-05-07T02:11:58;10.90;;;5.85;;
25449;SDS011;13371;52.080;5.624;2023-05-07T02:14:24;8.95;;;6.20;;
25449;SDS011;13371;52.080;5.624;2023-05-07T02:16:50;11.00;;;5.68;;
25449;SDS011;13371;52.080;5.624;2023-05-07T02:19:16;8.35;;;5.43;;
25449;SDS011;13371;52.080;5.624;2023-05-07T02:21:43;8.05;;;5.72;;
25449;SDS011;13371;52.080;5.624;2023-05-07T02:24:08;8.40;;;5.68;;
25449;SDS011;13371;52.080;5.624;2023-05-07T02:26:34;11.23;;;5.78;;
25449;SDS011;13371;52.080;5.624;2023-05-07T02:29:00;9.90;;;5.40;;
25449;SDS011;13371;52.080;5.624;2023-05-07T02:31:25;10.10;;;6.47;;
25449;SDS011;13371;52.080;5.624;2023-05-07T02:33:51;8.20;;;5.60;;
25449;SDS011;13371;52.080;5.624;2023-05-07T02:36:16;9.35;;;5.38;;
25449;SDS011;13371;52.080;5.624;2023-05-07T02:38:42;13.40;;;6.38;;
25449;SDS011;13371;52.080;5.624;2023-05-07T02:41:07;9.30;;;6.40;;
25449;SDS011;13371;52.080;5.624;2023-05-07T02:43:33;10.95;;;6.68;;
25449;SDS011;13371;52.080;5.624;2023-05-07T02:46:06;13.10;;;6.95;;
25449;SDS011;13371;52.080;5.624;2023-05-07T02:48:32;10.10;;;7.13;;
25449;SDS011;13371;52.080;5.624;2023-05-07T02:50:58;10.25;;;6.68;;
25449;SDS011;13371;52.080;5.624;2023-05-07T02:53:25;10.25;;;6.47;;
25449;SDS011;13371;52.080;5.624;2023-05-07T02:55:55;9.55;;;6.82;;
25449;SDS011;13371;52.080;5.624;2023-05-07T02:58:21;13.55;;;7.22;;
25449;SDS011;13371;52.080;5.624;2023-05-07T03:00:47;13.25;;;7.55;;
25449;SDS011;13371;52.080;5.624;2023-05-07T03:03:13;10.23;;;7.50;;
25449;SDS011;13371;52.080;5.624;2023-05-07T03:05:39;10.52;;;7.55;;
25449;SDS011;13371;52.080;5.624;2023-05-07T03:08:05;11.75;;;7.53;;
25449;SDS011;13371;52.080;5.624;2023-05-07T03:10:31;12.50;;;7.53;;
25449;SDS011;13371;52.080;5.624;2023-05-07T03:12:57;10.00;;;7.10;;
25449;SDS011;13371;52.080;5.624;2023-05-07T03:15:22;11.68;;;7.55;;
25449;SDS011;13371;52.080;5.624;2023-05-07T03:17:48;15.75;;;7.68;;
25449;SDS011;13371;52.080;5.624;2023-05-07T03:20:14;11.45;;;7.10;;
25449;SDS011;13371;52.080;5.624;2023-05-07T03:22:40;10.23;;;6.80;;
25449;SDS011;13371;52.080;5.624;2023-05-07T03:25:06;12.32;;;7.32;;
25449;SDS011;13371;52.080;5.624;2023-05-07T03:27:32;13.05;;;7.85;;
25449;SDS011;13371;52.080;5.624;2023-05-07T03:29:57;11.73;;;6.85;;
25449;SDS011;13371;52.080;5.624;2023-05-07T03:32:23;11.48;;;7.38;;
25449;SDS011;13371;52.080;5.624;2023-05-07T03:34:49;13.50;;;7.93;;
25449;SDS011;13371;52.080;5.624;2023-05-07T03:37:14;12.27;;;8.25;;
25449;SDS011;13371;52.080;5.624;2023-05-07T03:39:40;11.02;;;7.80;;
25449;SDS011;13371;52.080;5.624;2023-05-07T03:42:05;10.80;;;7.18;;
25449;SDS011;13371;52.080;5.624;2023-05-07T03:44:31;12.90;;;7.72;;
25449;SDS011;13371;52.080;5.624;2023-05-07T03:46:56;12.48;;;7.43;;
25449;SDS011;13371;52.080;5.624;2023-05-07T03:49:22;11.73;;;7.03;;
25449;SDS011;13371;52.080;5.624;2023-05-07T03:51:48;12.50;;;7.18;;
25449;SDS011;13371;52.080;5.624;2023-05-07T03:54:13;11.85;;;7.55;;
25449;SDS011;13371;52.080;5.624;2023-05-07T03:56:39;14.32;;;7.95;;
25449;SDS011;13371;52.080;5.624;2023-05-07T03:59:04;10.35;;;6.65;;
25449;SDS011;13371;52.080;5.624;2023-05-07T04:01:30;9.73;;;6.55;;
25449;SDS011;13371;52.080;5.624;2023-05-07T04:03:56;13.20;;;7.53;;
25449;SDS011;13371;52.080;5.624;2023-05-07T04:06:21;11.68;;;7.07;;
25449;SDS011;13371;52.080;5.624;2023-05-07T04:08:47;11.10;;;6.78;;
25449;SDS011;13371;52.080;5.624;2023-05-07T04:11:12;12.18;;;6.50;;
25449;SDS011;13371;52.080;5.624;2023-05-07T04:13:38;10.73;;;6.38;;
25449;SDS011;13371;52.080;5.624;2023-05-07T04:16:04;8.27;;;5.95;;
25449;SDS011;13371;52.080;5.624;2023-05-07T04:18:30;10.25;;;6.30;;
25449;SDS011;13371;52.080;5.624;2023-05-07T04:20:56;15.20;;;6.72;;
25449;SDS011;13371;52.080;5.624;2023-05-07T04:23:21;9.13;;;5.88;;
25449;SDS011;13371;52.080;5.624;2023-05-07T04:25:47;11.70;;;6.43;;
25449;SDS011;13371;52.080;5.624;2023-05-07T04:28:13;12.38;;;6.28;;
25449;SDS011;13371;52.080;5.624;2023-05-07T04:30:39;11.00;;;5.97;;
25449;SDS011;13371;52.080;5.624;2023-05-07T04:33:04;9.82;;;6.57;;
25449;SDS011;13371;52.080;5.624;2023-05-07T04:35:31;16.77;;;6.40;;
25449;SDS011;13371;52.080;5.624;2023-05-07T04:37:57;10.85;;;5.68;;
25449;SDS011;13371;52.080;5.624;2023-05-07T04:40:22;11.02;;;7.30;;
25449;SDS011;13371;52.080;5.624;2023-05-07T04:42:48;9.65;;;6.40;;
25449;SDS011;13371;52.080;5.624;2023-05-07T04:45:14;11.25;;;6.90;;
25449;SDS011;13371;52.080;5.624;2023-05-07T04:47:40;9.35;;;6.55;;
25449;SDS011;13371;52.080;5.624;2023-05-07T04:50:06;12.77;;;6.88;;
25449;SDS011;13371;52.080;5.624;2023-05-07T04:52:33;13.07;;;7.60;;
25449;SDS011;13371;52.080;5.624;2023-05-07T04:54:59;13.63;;;7.32;;
25449;SDS011;13371;52.080;5.624;2023-05-07T04:57:25;10.60;;;6.90;;
25449;SDS011;13371;52.080;5.624;2023-05-07T04:59:52;15.40;;;8.20;;
25449;SDS011;13371;52.080;5.624;2023-05-07T05:02:21;9.68;;;6.93;;
25449;SDS011;13371;52.080;5.624;2023-05-07T05:04:46;12.65;;;8.18;;
25449;SDS011;13371;52.080;5.624;2023-05-07T05:07:12;13.50;;;8.25;;
25449;SDS011;13371;52.080;5.624;2023-05-07T05:09:38;14.80;;;8.45;;
25449;SDS011;13371;52.080;5.624;2023-05-07T05:12:04;14.82;;;8.02;;
25449;SDS011;13371;52.080;5.624;2023-05-07T05:14:32;14.05;;;8.57;;
25449;SDS011;13371;52.080;5.624;2023-05-07T05:16:57;13.82;;;8.70;;
25449;SDS011;13371;52.080;5.624;2023-05-07T05:19:23;11.43;;;8.23;;
25449;SDS011;13371;52.080;5.624;2023-05-07T05:21:48;14.77;;;8.68;;
25449;SDS011;13371;52.080;5.624;2023-05-07T05:24:14;12.40;;;8.10;;
25449;SDS011;13371;52.080;5.624;2023-05-07T05:26:40;13.40;;;9.15;;
25449;SDS011;13371;52.080;5.624;2023-05-07T05:29:05;14.00;;;9.15;;
25449;SDS011;13371;52.080;5.624;2023-05-07T05:31:32;13.43;;;8.27;;
25449;SDS011;13371;52.080;5.624;2023-05-07T05:33:58;13.55;;;9.23;;
25449;SDS011;13371;52.080;5.624;2023-05-07T05:36:24;13.73;;;9.68;;
25449;SDS011;13371;52.080;5.624;2023-05-07T05:38:50;13.95;;;9.20;;
25449;SDS011;13371;52.080;5.624;2023-05-07T05:41:15;13.00;;;9.13;;
25449;SDS011;13371;52.080;5.624;2023-05-07T05:43:41;15.05;;;10.13;;
25449;SDS011;13371;52.080;5.624;2023-05-07T05:46:06;14.80;;;9.57;;
25449;SDS011;13371;52.080;5.624;2023-05-07T05:48:33;16.48;;;10.35;;
25449;SDS011;13371;52.080;5.624;2023-05-07T05:50:59;13.82;;;9.43;;
25449;SDS011;13371;52.080;5.624;2023-05-07T05:53:25;13.65;;;9.68;;
25449;SDS011;13371;52.080;5.624;2023-05-07T05:55:50;14.38;;;10.13;;
25449;SDS011;13371;52.080;5.624;2023-05-07T05:58:16;13.25;;;9.55;;
25449;SDS011;13371;52.080;5.624;2023-05-07T06:00:42;12.77;;;9.00;;
25449;SDS011;13371;52.080;5.624;2023-05-07T06:03:07;15.00;;;9.95;;
25449;SDS011;13371;52.080;5.624;2023-05-07T06:05:33;14.93;;;9.60;;
25449;SDS011;13371;52.080;5.624;2023-05-07T06:07:58;12.52;;;9.50;;
25449;SDS011;13371;52.080;5.624;2023-05-07T06:10:24;14.35;;;9.00;;
25449;SDS011;13371;52.080;5.624;2023-05-07T06:12:50;14.25;;;9.93;;
25449;SDS011;13371;52.080;5.624;2023-05-07T06:15:16;12.55;;;9.20;;
25449;SDS011;13371;52.080;5.624;2023-05-07T06:17:41;15.18;;;10.13;;
25449;SDS011;13371;52.080;5.624;2023-05-07T06:20:07;14.30;;;9.23;;
25449;SDS011;13371;52.080;5.624;2023-05-07T06:22:33;14.35;;;9.45;;
25449;SDS011;13371;52.080;5.624;2023-05-07T06:24:58;12.63;;;9.43;;
25449;SDS011;13371;52.080;5.624;2023-05-07T06:27:24;15.27;;;10.32;;
25449;SDS011;13371;52.080;5.624;2023-05-07T06:29:50;14.15;;;10.50;;
25449;SDS011;13371;52.080;5.624;2023-05-07T06:32:15;14.57;;;9.95;;
25449;SDS011;13371;52.080;5.624;2023-05-07T06:34:42;15.68;;;9.85;;
25449;SDS011;13371;52.080;5.624;2023-05-07T06:37:07;14.43;;;10.00;;
25449;SDS011;13371;52.080;5.624;2023-05-07T06:39:33;13.23;;;9.27;;
25449;SDS011;13371;52.080;5.624;2023-05-07T06:41:59;13.85;;;9.80;;
25449;SDS011;13371;52.080;5.624;2023-05-07T06:44:26;17.83;;;10.18;;
25449;SDS011;13371;52.080;5.624;2023-05-07T06:46:52;12.07;;;8.80;;
25449;SDS011;13371;52.080;5.624;2023-05-07T06:49:17;12.15;;;9.18;;
25449;SDS011;13371;52.080;5.624;2023-05-07T06:51:43;15.85;;;10.40;;
25449;SDS011;13371;52.080;5.624;2023-05-07T06:54:08;13.77;;;9.65;;
25449;SDS011;13371;52.080;5.624;2023-05-07T06:56:34;15.30;;;10.13;;
25449;SDS011;13371;52.080;5.624;2023-05-07T06:59:00;16.02;;;10.70;;
25449;SDS011;13371;52.080;5.624;2023-05-07T07:01:26;17.00;;;9.93;;
25449;SDS011;13371;52.080;5.624;2023-05-07T07:03:52;18.60;;;10.80;;
25449;SDS011;13371;52.080;5.624;2023-05-07T07:06:17;17.63;;;11.60;;
25449;SDS011;13371;52.080;5.624;2023-05-07T07:08:43;14.18;;;10.45;;
25449;SDS011;13371;52.080;5.624;2023-05-07T07:11:09;13.75;;;10.18;;
25449;SDS011;13371;52.080;5.624;2023-05-07T07:13:35;17.58;;;11.18;;
25449;SDS011;13371;52.080;5.624;2023-05-07T07:16:01;15.68;;;11.40;;
25449;SDS011;13371;52.080;5.624;2023-05-07T07:18:26;13.73;;;9.90;;
25449;SDS011;13371;52.080;5.624;2023-05-07T07:20:52;16.75;;;10.30;;
25449;SDS011;13371;52.080;5.624;2023-05-07T07:23:18;15.13;;;10.65;;
25449;SDS011;13371;52.080;5.624;2023-05-07T07:25:44;16.10;;;10.55;;
25449;SDS011;13371;52.080;5.624;2023-05-07T07:28:09;17.17;;;11.02;;
25449;SDS011;13371;52.080;5.624;2023-05-07T07:30:36;14.90;;;10.85;;
25449;SDS011;13371;52.080;5.624;2023-05-07T07:33:02;15.02;;;11.07;;
25449;SDS011;13371;52.080;5.624;2023-05-07T07:35:31;15.93;;;10.65;;
25449;SDS011;13371;52.080;5.624;2023-05-07T07:37:57;15.57;;;10.45;;
25449;SDS011;13371;52.080;5.624;2023-05-07T07:40:23;15.38;;;11.02;;
25449;SDS011;13371;52.080;5.624;2023-05-07T07:42:49;13.82;;;10.43;;
25449;SDS011;13371;52.080;5.624;2023-05-07T07:45:15;12.48;;;9.45;;
25449;SDS011;13371;52.080;5.624;2023-05-07T07:47:41;13.40;;;9.13;;
25449;SDS011;13371;52.080;5.624;2023-05-07T07:50:07;17.42;;;10.27;;
25449;SDS011;13371;52.080;5.624;2023-05-07T07:52:33;13.48;;;9.35;;
25449;SDS011;13371;52.080;5.624;2023-05-07T07:54:59;14.93;;;10.70;;
25449;SDS011;13371;52.080;5.624;2023-05-07T07:57:25;14.38;;;10.18;;
25449;SDS011;13371;52.080;5.624;2023-05-07T07:59:50;13.90;;;10.35;;
25449;SDS011;13371;52.080;5.624;2023-05-07T08:02:16;16.73;;;10.18;;
25449;SDS011;13371;52.080;5.624;2023-05-07T08:04:42;15.63;;;10.13;;
25449;SDS011;13371;52.080;5.624;2023-05-07T08:07:11;14.48;;;10.80;;
25449;SDS011;13371;52.080;5.624;2023-05-07T08:09:37;17.08;;;10.80;;
25449;SDS011;13371;52.080;5.624;2023-05-07T08:12:03;17.17;;;11.05;;
25449;SDS011;13371;52.080;5.624;2023-05-07T08:14:29;14.45;;;10.27;;
25449;SDS011;13371;52.080;5.624;2023-05-07T08:16:55;16.92;;;11.38;;
25449;SDS011;13371;52.080;5.624;2023-05-07T08:19:20;17.35;;;10.75;;
25449;SDS011;13371;52.080;5.624;2023-05-07T08:21:46;18.63;;;11.40;;
25449;SDS011;13371;52.080;5.624;2023-05-07T08:24:13;17.48;;;11.63;;
25449;SDS011;13371;52.080;5.624;2023-05-07T08:26:42;16.73;;;11.18;;
25449;SDS011;13371;52.080;5.624;2023-05-07T08:29:08;17.77;;;11.30;;
25449;SDS011;13371;52.080;5.624;2023-05-07T08:31:34;17.58;;;11.73;;
25449;SDS011;13371;52.080;5.624;2023-05-07T08:34:00;16.45;;;10.70;;
25449;SDS011;13371;52.080;5.624;2023-05-07T08:36:26;17.83;;;12.20;;
25449;SDS011;13371;52.080;5.624;2023-05-07T08:38:52;17.42;;;12.20;;
25449;SDS011;13371;52.080;5.624;2023-05-07T08:41:18;17.75;;;12.50;;
25449;SDS011;13371;52.080;5.624;2023-05-07T08:43:45;18.92;;;12.05;;
25449;SDS011;13371;52.080;5.624;2023-05-07T08:46:16;19.30;;;13.07;;
25449;SDS011;13371;52.080;5.624;2023-05-07T08:48:44;17.60;;;12.93;;
25449;SDS011;13371;52.080;5.624;2023-05-07T08:51:13;15.18;;;11.15;;
25449;SDS011;13371;52.080;5.624;2023-05-07T08:53:41;17.40;;;11.13;;
25449;SDS011;13371;52.080;5.624;2023-05-07T08:56:08;15.80;;;10.80;;
25449;SDS011;13371;52.080;5.624;2023-05-07T08:58:34;19.85;;;12.00;;
25449;SDS011;13371;52.080;5.624;2023-05-07T09:01:01;15.48;;;10.90;;
25449;SDS011;13371;52.080;5.624;2023-05-07T09:03:41;16.63;;;11.27;;
25449;SDS011;13371;52.080;5.624;2023-05-07T09:06:09;16.58;;;11.32;;
25449;SDS011;13371;52.080;5.624;2023-05-07T09:08:35;17.40;;;11.85;;
25449;SDS011;13371;52.080;5.624;2023-05-07T09:11:01;15.65;;;11.07;;
25449;SDS011;13371;52.080;5.624;2023-05-07T09:13:27;18.45;;;11.27;;
25449;SDS011;13371;52.080;5.624;2023-05-07T09:15:53;17.25;;;12.35;;
25449;SDS011;13371;52.080;5.624;2023-05-07T09:18:19;16.95;;;12.65;;
25449;SDS011;13371;52.080;5.624;2023-05-07T09:20:45;15.98;;;11.82;;
25449;SDS011;13371;52.080;5.624;2023-05-07T09:23:10;17.40;;;11.68;;
25449;SDS011;13371;52.080;5.624;2023-05-07T09:25:36;17.77;;;12.10;;
25449;SDS011;13371;52.080;5.624;2023-05-07T09:28:02;16.10;;;11.40;;
25449;SDS011;13371;52.080;5.624;2023-05-07T09:30:30;15.98;;;11.50;;
25449;SDS011;13371;52.080;5.624;2023-05-07T09:32:57;15.68;;;11.35;;
25449;SDS011;13371;52.080;5.624;2023-05-07T09:35:24;15.70;;;10.65;;
25449;SDS011;13371;52.080;5.624;2023-05-07T09:37:52;14.45;;;10.55;;
25449;SDS011;13371;52.080;5.624;2023-05-07T09:40:20;13.98;;;9.65;;
25449;SDS011;13371;52.080;5.624;2023-05-07T09:42:50;15.75;;;9.57;;
25449;SDS011;13371;52.080;5.624;2023-05-07T09:45:16;14.75;;;9.45;;
25449;SDS011;13371;52.080;5.624;2023-05-07T09:47:56;13.88;;;8.85;;
25449;SDS011;13371;52.080;5.624;2023-05-07T09:50:26;13.50;;;8.45;;
25449;SDS011;13371;52.080;5.624;2023-05-07T09:52:56;14.30;;;8.80;;
25449;SDS011;13371;52.080;5.624;2023-05-07T09:55:22;12.75;;;8.95;;
25449;SDS011;13371;52.080;5.624;2023-05-07T09:57:51;13.50;;;9.18;;
25449;SDS011;13371;52.080;5.624;2023-05-07T10:00:18;13.07;;;8.55;;
25449;SDS011;13371;52.080;5.624;2023-05-07T10:02:45;17.73;;;9.35;;
25449;SDS011;13371;52.080;5.624;2023-05-07T10:05:17;12.82;;;7.68;;
25449;SDS011;13371;52.080;5.624;2023-05-07T10:07:44;14.57;;;8.20;;
25449;SDS011;13371;52.080;5.624;2023-05-07T10:10:10;11.63;;;7.85;;
25449;SDS011;13371;52.080;5.624;2023-05-07T10:12:37;9.95;;;7.32;;
25449;SDS011;13371;52.080;5.624;2023-05-07T10:15:08;13.98;;;7.40;;
25449;SDS011;13371;52.080;5.624;2023-05-07T10:17:39;13.00;;;8.48;;
25449;SDS011;13371;52.080;5.624;2023-05-07T10:20:06;12.02;;;7.18;;
25449;SDS011;13371;52.080;5.624;2023-05-07T10:22:43;10.80;;;7.65;;
25449;SDS011;13371;52.080;5.624;2023-05-07T10:25:18;12.48;;;7.75;;
25449;SDS011;13371;52.080;5.624;2023-05-07T10:27:48;11.65;;;7.70;;
25449;SDS011;13371;52.080;5.624;2023-05-07T10:32:53;10.50;;;7.25;;
25449;SDS011;13371;52.080;5.624;2023-05-07T10:35:22;9.23;;;6.80;;
25449;SDS011;13371;52.080;5.624;2023-05-07T10:37:51;12.10;;;7.38;;
25449;SDS011;13371;52.080;5.624;2023-05-07T10:40:17;9.93;;;6.90;;
25449;SDS011;13371;52.080;5.624;2023-05-07T10:42:59;10.20;;;7.38;;
25449;SDS011;13371;52.080;5.624;2023-05-07T10:45:26;9.60;;;6.55;;
25449;SDS011;13371;52.080;5.624;2023-05-07T10:50:35;9.98;;;6.30;;
25449;SDS011;13371;52.080;5.624;2023-05-07T10:55:42;11.18;;;6.25;;
25449;SDS011;13371;52.080;5.624;2023-05-07T10:58:34;8.93;;;5.10;;
25449;SDS011;13371;52.080;5.624;2023-05-07T11:01:01;9.85;;;5.95;;
25449;SDS011;13371;52.080;5.624;2023-05-07T11:03:27;6.95;;;4.65;;
25449;SDS011;13371;52.080;5.624;2023-05-07T11:06:10;7.05;;;4.63;;
25449;SDS011;13371;52.080;5.624;2023-05-07T11:11:18;5.70;;;3.20;;
25449;SDS011;13371;52.080;5.624;2023-05-07T11:13:45;5.50;;;3.42;;
25449;SDS011;13371;52.080;5.624;2023-05-07T11:16:21;5.18;;;3.38;;
25449;SDS011;13371;52.080;5.624;2023-05-07T11:18:49;4.78;;;3.17;;
25449;SDS011;13371;52.080;5.624;2023-05-07T11:24:01;4.72;;;3.28;;
25449;SDS011;13371;52.080;5.624;2023-05-07T11:29:15;5.80;;;3.15;;
25449;SDS011;13371;52.080;5.624;2023-05-07T11:31:42;6.70;;;3.10;;
25449;SDS011;13371;52.080;5.624;2023-05-07T11:34:07;7.75;;;3.33;;
25449;SDS011;13371;52.080;5.624;2023-05-07T11:36:34;6.47;;;3.47;;
25449;SDS011;13371;52.080;5.624;2023-05-07T11:39:00;8.43;;;3.53;;
25449;SDS011;13371;52.080;5.624;2023-05-07T11:41:35;7.28;;;3.58;;
25449;SDS011;13371;52.080;5.624;2023-05-07T11:44:02;5.10;;;2.88;;
25449;SDS011;13371;52.080;5.624;2023-05-07T11:46:27;5.63;;;3.17;;
25449;SDS011;13371;52.080;5.624;2023-05-07T11:48:54;5.30;;;3.97;;
25449;SDS011;13371;52.080;5.624;2023-05-07T11:51:21;5.13;;;3.50;;
25449;SDS011;13371;52.080;5.624;2023-05-07T11:53:48;6.57;;;3.00;;
25449;SDS011;13371;52.080;5.624;2023-05-07T11:56:14;6.15;;;4.15;;
25449;SDS011;13371;52.080;5.624;2023-05-07T11:58:41;7.68;;;4.55;;
25449;SDS011;13371;52.080;5.624;2023-05-07T12:01:08;7.00;;;5.18;;
25449;SDS011;13371;52.080;5.624;2023-05-07T12:03:35;7.68;;;5.38;;
25449;SDS011;13371;52.080;5.624;2023-05-07T12:06:07;7.55;;;4.50;;
25449;SDS011;13371;52.080;5.624;2023-05-07T12:08:35;6.10;;;4.50;;
25449;SDS011;13371;52.080;5.624;2023-05-07T12:11:02;9.10;;;6.45;;
25449;SDS011;13371;52.080;5.624;2023-05-07T12:13:28;11.65;;;6.85;;
25449;SDS011;13371;52.080;5.624;2023-05-07T12:15:55;15.18;;;8.68;;
25449;SDS011;13371;52.080;5.624;2023-05-07T12:18:22;14.32;;;9.30;;
25449;SDS011;13371;52.080;5.624;2023-05-07T12:20:48;14.63;;;9.52;;
25449;SDS011;13371;52.080;5.624;2023-05-07T12:23:15;12.27;;;8.70;;
25449;SDS011;13371;52.080;5.624;2023-05-07T12:25:42;14.30;;;9.23;;
25449;SDS011;13371;52.080;5.624;2023-05-07T12:28:17;17.65;;;8.90;;
25449;SDS011;13371;52.080;5.624;2023-05-07T12:30:46;14.32;;;9.65;;
25449;SDS011;13371;52.080;5.624;2023-05-07T12:33:17;13.65;;;9.35;;
25449;SDS011;13371;52.080;5.624;2023-05-07T12:35:46;10.63;;;8.18;;
25449;SDS011;13371;52.080;5.624;2023-05-07T12:38:13;13.35;;;9.07;;
25449;SDS011;13371;52.080;5.624;2023-05-07T12:40:41;12.68;;;9.27;;
25449;SDS011;13371;52.080;5.624;2023-05-07T12:43:14;16.45;;;11.02;;
25449;SDS011;13371;52.080;5.624;2023-05-07T12:45:49;14.93;;;9.52;;
25449;SDS011;13371;52.080;5.624;2023-05-07T12:48:16;13.77;;;10.43;;
25449;SDS011;13371;52.080;5.624;2023-05-07T12:50:42;16.70;;;10.90;;
25449;SDS011;13371;52.080;5.624;2023-05-07T12:53:09;15.63;;;10.75;;
25449;SDS011;13371;52.080;5.624;2023-05-07T12:55:40;16.20;;;10.75;;
25449;SDS011;13371;52.080;5.624;2023-05-07T12:58:07;16.20;;;11.25;;
25449;SDS011;13371;52.080;5.624;2023-05-07T13:00:36;15.52;;;10.80;;
25449;SDS011;13371;52.080;5.624;2023-05-07T13:03:03;17.27;;;11.05;;
25449;SDS011;13371;52.080;5.624;2023-05-07T13:05:29;14.35;;;10.02;;
25449;SDS011;13371;52.080;5.624;2023-05-07T13:07:55;14.77;;;10.30;;
25449;SDS011;13371;52.080;5.624;2023-05-07T13:10:24;13.90;;;10.10;;
25449;SDS011;13371;52.080;5.624;2023-05-07T13:12:50;14.07;;;9.73;;
25449;SDS011;13371;52.080;5.624;2023-05-07T13:15:17;14.30;;;9.63;;
25449;SDS011;13371;52.080;5.624;2023-05-07T13:17:43;13.52;;;8.20;;
25449;SDS011;13371;52.080;5.624;2023-05-07T13:20:09;12.35;;;8.60;;
25449;SDS011;13371;52.080;5.624;2023-05-07T13:22:35;10.55;;;7.72;;
25449;SDS011;13371;52.080;5.624;2023-05-07T13:25:01;11.55;;;8.13;;
25449;SDS011;13371;52.080;5.624;2023-05-07T13:27:26;10.65;;;7.38;;
25449;SDS011;13371;52.080;5.624;2023-05-07T13:29:52;13.57;;;8.27;;
25449;SDS011;13371;52.080;5.624;2023-05-07T13:32:18;13.73;;;8.55;;
25449;SDS011;13371;52.080;5.624;2023-05-07T13:34:43;12.80;;;8.15;;
25449;SDS011;13371;52.080;5.624;2023-05-07T13:37:09;12.50;;;9.40;;
25449;SDS011;13371;52.080;5.624;2023-05-07T13:39:35;12.50;;;8.43;;
25449;SDS011;13371;52.080;5.624;2023-05-07T13:42:01;14.57;;;9.05;;
25449;SDS011;13371;52.080;5.624;2023-05-07T13:44:27;11.55;;;8.45;;
25449;SDS011;13371;52.080;5.624;2023-05-07T13:46:52;12.40;;;8.88;;
25449;SDS011;13371;52.080;5.624;2023-05-07T13:49:18;13.23;;;7.85;;
25449;SDS011;13371;52.080;5.624;2023-05-07T13:51:43;13.05;;;8.93;;
25449;SDS011;13371;52.080;5.624;2023-05-07T13:54:09;13.20;;;8.60;;
25449;SDS011;13371;52.080;5.624;2023-05-07T13:56:35;15.05;;;8.77;;
25449;SDS011;13371;52.080;5.624;2023-05-07T13:59:00;13.50;;;8.50;;
25449;SDS011;13371;52.080;5.624;2023-05-07T14:01:26;13.63;;;9.52;;
25449;SDS011;13371;52.080;5.624;2023-05-07T14:03:52;13.80;;;9.68;;
25449;SDS011;13371;52.080;5.624;2023-05-07T14:06:17;13.30;;;9.50;;
25449;SDS011;13371;52.080;5.624;2023-05-07T14:08:43;15.23;;;9.88;;
25449;SDS011;13371;52.080;5.624;2023-05-07T14:11:08;14.82;;;9.13;;
25449;SDS011;13371;52.080;5.624;2023-05-07T14:13:34;13.07;;;8.63;;
25449;SDS011;13371;52.080;5.624;2023-05-07T14:16:00;15.32;;;8.90;;
25449;SDS011;13371;52.080;5.624;2023-05-07T14:18:25;14.40;;;9.68;;
25449;SDS011;13371;52.080;5.624;2023-05-07T14:20:51;14.32;;;8.55;;
25449;SDS011;13371;52.080;5.624;2023-05-07T14:23:17;13.50;;;8.73;;
25449;SDS011;13371;52.080;5.624;2023-05-07T14:25:44;11.02;;;8.05;;
25449;SDS011;13371;52.080;5.624;2023-05-07T14:28:12;11.85;;;6.97;;
25449;SDS011;13371;52.080;5.624;2023-05-07T14:30:38;12.18;;;8.07;;
25449;SDS011;13371;52.080;5.624;2023-05-07T14:33:03;9.80;;;6.90;;
25449;SDS011;13371;52.080;5.624;2023-05-07T14:35:29;12.70;;;7.43;;
25449;SDS011;13371;52.080;5.624;2023-05-07T14:37:54;13.68;;;8.20;;
25449;SDS011;13371;52.080;5.624;2023-05-07T14:40:20;12.48;;;7.88;;
25449;SDS011;13371;52.080;5.624;2023-05-07T14:42:46;11.88;;;8.48;;
25449;SDS011;13371;52.080;5.624;2023-05-07T14:45:11;13.93;;;8.85;;
25449;SDS011;13371;52.080;5.624;2023-05-07T14:47:37;15.63;;;9.25;;
25449;SDS011;13371;52.080;5.624;2023-05-07T14:50:03;12.70;;;8.60;;